sensor_id;sensor_type;location;lat;lon;timestamp;P1;durP1;ratioP1;P2;durP2;ratioP2
34230;SDS011;21574;51.538;-0.084;2022-10-16T00:02:17;5.70;;;2.85;;
34230;SDS011;21574;51.538;-0.084;2022-10-16T00:04:42;7.20;;;3.15;;
34230;SDS011;21574;51.538;-0.084;2022-10-16T00:07:08;5.22;;;2.70;;
34230;SDS011;21574;51.538;-0.084;2022-10-16T00:09:34;4.78;;;2.47;;
34230;SDS011;21574;51.538;-0.084;2022-10-16T00:11:59;6.47;;;2.90;;
34230;SDS011;21574;51.538;-0.084;2022-10-16T00:14:25;5.47;;;2.80;;
34230;SDS011;21574;51.538;-0.084;2022-10-16T00:16:50;6.35;;;3.33;;
34230;SDS011;21574;51.538;-0.084;2022-10-16T00:19:16;5.65;;;3.00;;
34230;SDS011;21574;51.538;-0.084;2022-10-16T00:21:41;7.30;;;3.53;;
34230;SDS011;21574;51.538;-0.084;2022-10-16T00:24:07;7.20;;;3.05;;
34230;SDS011;21574;51.538;-0.084;2022-10-16T00:26:35;6.93;;;2.83;;
34230;SDS011;21574;51.538;-0.084;2022-10-16T00:29:01;4.88;;;2.72;;
34230;SDS011;21574;51.538;-0.084;2022-10-16T00:31:27;7.07;;;2.88;;
34230;SDS011;21574;51.538;-0.084;2022-10-16T00:33:53;5.70;;;2.50;;
34230;SDS011;21574;51.538;-0.084;2022-10-16T00:36:20;4.55;;;2.58;;
34230;SDS011;21574;51.538;-0.084;2022-10-16T00:38:49;5.93;;;2.70;;
34230;SDS011;21574;51.538;-0.084;2022-10-16T00:41:18;6.28;;;2.97;;
34230;SDS011;21574;51.538;-0.084;2022-10-16T00:43:45;5.55;;;2.90;;
34230;SDS011;21574;51.538;-0.084;2022-10-16T00:48:45;4.18;;;2.63;;
34230;SDS011;21574;51.538;-0.084;2022-10-16T00:52:11;5.10;;;2.75;;
34230;SDS011;21574;51.538;-0.084;2022-10-16T00:56:45;5.35;;;2.80;;
34230;SDS011;21574;51.538;-0.084;2022-10-16T00:59:19;5.43;;;2.80;;
34230;SDS011;21574;51.538;-0.084;2022-10-16T01:01:50;4.80;;;2.60;;
34230;SDS011;21574;51.538;-0.084;2022-10-16T01:04:16;6.30;;;2.85;;
34230;SDS011;21574;51.538;-0.084;2022-10-16T01:11:48;5.10;;;2.60;;
34230;SDS011;21574;51.538;-0.084;2022-10-16T01:14:26;5.90;;;2.60;;
34230;SDS011;21574;51.538;-0.084;2022-10-16T01:17:11;5.97;;;2.70;;
34230;SDS011;21574;51.538;-0.084;2022-10-16T01:22:11;6.00;;;2.63;;
34230;SDS011;21574;51.538;-0.084;2022-10-16T01:24:38;6.72;;;2.90;;
34230;SDS011;21574;51.538;-0.084;2022-10-16T01:27:10;4.53;;;2.17;;
34230;SDS011;21574;51.538;-0.084;2022-10-16T01:32:33;3.47;;;1.95;;
34230;SDS011;21574;51.538;-0.084;2022-10-16T01:35:24;4.50;;;2.33;;
34230;SDS011;21574;51.538;-0.084;2022-10-16T01:38:05;4.97;;;2.15;;
34230;SDS011;21574;51.538;-0.084;2022-10-16T01:40:38;6.38;;;2.50;;
34230;SDS011;21574;51.538;-0.084;2022-10-16T01:43:08;5.95;;;2.70;;
34230;SDS011;21574;51.538;-0.084;2022-10-16T01:45:42;5.72;;;2.63;;
34230;SDS011;21574;51.538;-0.084;2022-10-16T01:48:12;4.60;;;2.17;;
34230;SDS011;21574;51.538;-0.084;2022-10-16T01:50:41;7.97;;;2.40;;
34230;SDS011;21574;51.538;-0.084;2022-10-16T01:53:09;6.35;;;1.98;;
34230;SDS011;21574;51.538;-0.084;2022-10-16T01:55:39;4.15;;;2.15;;
34230;SDS011;21574;51.538;-0.084;2022-10-16T01:58:10;5.28;;;2.30;;
34230;SDS011;21574;51.538;-0.084;2022-10-16T02:00:38;6.07;;;2.60;;
34230;SDS011;21574;51.538;-0.084;2022-10-16T02:03:07;5.50;;;2.08;;
34230;SDS011;21574;51.538;-0.084;2022-10-16T02:08:07;9.07;;;2.30;;
34230;SDS011;21574;51.538;-0.084;2022-10-16T02:10:32;6.93;;;2.70;;
34230;SDS011;21574;51.538;-0.084;2022-10-16T02:13:05;5.13;;;2.28;;
34230;SDS011;21574;51.538;-0.084;2022-10-16T02:15:34;4.95;;;2.38;;
34230;SDS011;21574;51.538;-0.084;2022-10-16T02:18:01;6.75;;;2.42;;
34230;SDS011;21574;51.538;-0.084;2022-10-16T02:20:28;5.03;;;2.30;;
34230;SDS011;21574;51.538;-0.084;2022-10-16T02:23:01;5.72;;;2.40;;
34230;SDS011;21574;51.538;-0.084;2022-10-16T02:25:32;5.22;;;2.20;;
34230;SDS011;21574;51.538;-0.084;2022-10-16T02:28:03;4.70;;;2.35;;
34230;SDS011;21574;51.538;-0.084;2022-10-16T02:30:47;3.75;;;2.15;;
34230;SDS011;21574;51.538;-0.084;2022-10-16T02:33:15;4.15;;;2.13;;
34230;SDS011;21574;51.538;-0.084;2022-10-16T02:38:10;3.92;;;2.28;;
34230;SDS011;21574;51.538;-0.084;2022-10-16T02:40:36;6.25;;;2.42;;
34230;SDS011;21574;51.538;-0.084;2022-10-16T02:43:03;3.92;;;2.00;;
34230;SDS011;21574;51.538;-0.084;2022-10-16T02:45:29;4.95;;;2.30;;
34230;SDS011;21574;51.538;-0.084;2022-10-16T02:47:55;5.35;;;2.20;;
34230;SDS011;21574;51.538;-0.084;2022-10-16T02:50:21;4.93;;;2.25;;
34230;SDS011;21574;51.538;-0.084;2022-10-16T02:52:47;4.15;;;2.38;;
34230;SDS011;21574;51.538;-0.084;2022-10-16T02:55:13;4.72;;;2.33;;
34230;SDS011;21574;51.538;-0.084;2022-10-16T02:57:38;5.35;;;2.30;;
34230;SDS011;21574;51.538;-0.084;2022-10-16T03:00:05;5.20;;;2.28;;
34230;SDS011;21574;51.538;-0.084;2022-10-16T03:02:32;4.05;;;1.73;;
34230;SDS011;21574;51.538;-0.084;2022-10-16T03:04:57;3.97;;;1.83;;
34230;SDS011;21574;51.538;-0.084;2022-10-16T03:07:23;5.38;;;2.03;;
34230;SDS011;21574;51.538;-0.084;2022-10-16T03:09:49;5.95;;;2.20;;
34230;SDS011;21574;51.538;-0.084;2022-10-16T03:12:14;6.10;;;2.30;;
34230;SDS011;21574;51.538;-0.084;2022-10-16T03:14:40;4.47;;;2.25;;
34230;SDS011;21574;51.538;-0.084;2022-10-16T03:17:05;4.85;;;2.20;;
34230;SDS011;21574;51.538;-0.084;2022-10-16T03:19:31;3.88;;;1.95;;
34230;SDS011;21574;51.538;-0.084;2022-10-16T03:21:57;3.35;;;1.80;;
34230;SDS011;21574;51.538;-0.084;2022-10-16T03:24:22;4.43;;;2.13;;
34230;SDS011;21574;51.538;-0.084;2022-10-16T03:26:48;5.38;;;2.42;;
34230;SDS011;21574;51.538;-0.084;2022-10-16T03:29:13;5.28;;;2.13;;
34230;SDS011;21574;51.538;-0.084;2022-10-16T03:31:39;5.72;;;1.92;;
34230;SDS011;21574;51.538;-0.084;2022-10-16T03:34:05;5.00;;;2.13;;
34230;SDS011;21574;51.538;-0.084;2022-10-16T03:36:30;4.72;;;2.13;;
34230;SDS011;21574;51.538;-0.084;2022-10-16T03:38:56;3.55;;;1.88;;
34230;SDS011;21574;51.538;-0.084;2022-10-16T03:41:22;4.43;;;1.75;;
34230;SDS011;21574;51.538;-0.084;2022-10-16T03:43:47;3.72;;;1.60;;
34230;SDS011;21574;51.538;-0.084;2022-10-16T03:46:13;4.85;;;2.03;;
34230;SDS011;21574;51.538;-0.084;2022-10-16T03:48:39;3.55;;;1.67;;
34230;SDS011;21574;51.538;-0.084;2022-10-16T03:51:05;4.22;;;1.70;;
34230;SDS011;21574;51.538;-0.084;2022-10-16T03:53:30;4.25;;;1.95;;
34230;SDS011;21574;51.538;-0.084;2022-10-16T03:55:56;3.28;;;1.60;;
34230;SDS011;21574;51.538;-0.084;2022-10-16T03:58:21;3.15;;;1.60;;
34230;SDS011;21574;51.538;-0.084;2022-10-16T04:00:47;4.00;;;1.70;;
34230;SDS011;21574;51.538;-0.084;2022-10-16T04:03:13;3.65;;;1.67;;
34230;SDS011;21574;51.538;-0.084;2022-10-16T04:05:39;4.47;;;2.05;;
34230;SDS011;21574;51.538;-0.084;2022-10-16T04:08:04;5.38;;;1.85;;
34230;SDS011;21574;51.538;-0.084;2022-10-16T04:10:30;4.53;;;1.77;;
34230;SDS011;21574;51.538;-0.084;2022-10-16T04:12:56;5.18;;;1.95;;
34230;SDS011;21574;51.538;-0.084;2022-10-16T04:15:24;3.42;;;1.60;;
34230;SDS011;21574;51.538;-0.084;2022-10-16T04:17:51;3.65;;;1.80;;
34230;SDS011;21574;51.538;-0.084;2022-10-16T04:20:17;3.47;;;1.73;;
34230;SDS011;21574;51.538;-0.084;2022-10-16T04:22:43;3.10;;;1.52;;
34230;SDS011;21574;51.538;-0.084;2022-10-16T04:25:09;4.35;;;1.70;;
34230;SDS011;21574;51.538;-0.084;2022-10-16T04:30:02;2.63;;;1.25;;
34230;SDS011;21574;51.538;-0.084;2022-10-16T04:32:28;4.10;;;1.92;;
34230;SDS011;21574;51.538;-0.084;2022-10-16T04:34:54;4.35;;;1.58;;
34230;SDS011;21574;51.538;-0.084;2022-10-16T04:37:22;2.78;;;1.40;;
34230;SDS011;21574;51.538;-0.084;2022-10-16T04:39:49;7.53;;;1.60;;
34230;SDS011;21574;51.538;-0.084;2022-10-16T04:42:14;3.58;;;1.60;;
34230;SDS011;21574;51.538;-0.084;2022-10-16T04:44:40;8.13;;;1.85;;
34230;SDS011;21574;51.538;-0.084;2022-10-16T04:47:05;5.88;;;1.85;;
34230;SDS011;21574;51.538;-0.084;2022-10-16T04:49:31;3.55;;;1.65;;
34230;SDS011;21574;51.538;-0.084;2022-10-16T04:51:57;5.63;;;1.52;;
34230;SDS011;21574;51.538;-0.084;2022-10-16T04:54:22;5.80;;;1.58;;
34230;SDS011;21574;51.538;-0.084;2022-10-16T04:56:48;4.32;;;1.50;;
34230;SDS011;21574;51.538;-0.084;2022-10-16T04:59:15;5.13;;;1.48;;
34230;SDS011;21574;51.538;-0.084;2022-10-16T05:01:41;3.47;;;1.70;;
34230;SDS011;21574;51.538;-0.084;2022-10-16T05:04:07;4.18;;;1.63;;
34230;SDS011;21574;51.538;-0.084;2022-10-16T05:06:33;5.20;;;1.83;;
34230;SDS011;21574;51.538;-0.084;2022-10-16T05:08:58;5.85;;;1.70;;
34230;SDS011;21574;51.538;-0.084;2022-10-16T05:11:24;7.30;;;1.95;;
34230;SDS011;21574;51.538;-0.084;2022-10-16T05:13:50;4.72;;;2.00;;
34230;SDS011;21574;51.538;-0.084;2022-10-16T05:16:15;2.95;;;1.60;;
34230;SDS011;21574;51.538;-0.084;2022-10-16T05:18:41;5.07;;;1.70;;
34230;SDS011;21574;51.538;-0.084;2022-10-16T05:21:06;2.65;;;1.55;;
34230;SDS011;21574;51.538;-0.084;2022-10-16T05:23:32;3.28;;;1.55;;
34230;SDS011;21574;51.538;-0.084;2022-10-16T05:25:58;5.07;;;1.55;;
34230;SDS011;21574;51.538;-0.084;2022-10-16T05:28:27;2.83;;;1.25;;
34230;SDS011;21574;51.538;-0.084;2022-10-16T05:30:55;5.90;;;1.50;;
34230;SDS011;21574;51.538;-0.084;2022-10-16T05:33:21;5.03;;;1.80;;
34230;SDS011;21574;51.538;-0.084;2022-10-16T05:38:14;3.67;;;1.60;;
34230;SDS011;21574;51.538;-0.084;2022-10-16T05:40:40;4.35;;;1.50;;
34230;SDS011;21574;51.538;-0.084;2022-10-16T05:43:06;5.00;;;1.92;;
34230;SDS011;21574;51.538;-0.084;2022-10-16T05:45:31;4.05;;;1.60;;
34230;SDS011;21574;51.538;-0.084;2022-10-16T05:47:57;1.65;;;1.05;;
34230;SDS011;21574;51.538;-0.084;2022-10-16T05:50:23;4.97;;;1.50;;
34230;SDS011;21574;51.538;-0.084;2022-10-16T05:52:48;6.53;;;1.73;;
34230;SDS011;21574;51.538;-0.084;2022-10-16T05:55:14;5.05;;;1.63;;
34230;SDS011;21574;51.538;-0.084;2022-10-16T05:57:40;3.10;;;1.33;;
34230;SDS011;21574;51.538;-0.084;2022-10-16T06:00:06;5.43;;;1.60;;
34230;SDS011;21574;51.538;-0.084;2022-10-16T06:02:32;8.80;;;1.70;;
34230;SDS011;21574;51.538;-0.084;2022-10-16T06:04:57;5.00;;;1.45;;
34230;SDS011;21574;51.538;-0.084;2022-10-16T06:07:23;10.73;;;1.60;;
34230;SDS011;21574;51.538;-0.084;2022-10-16T06:09:49;4.40;;;1.65;;
34230;SDS011;21574;51.538;-0.084;2022-10-16T06:12:16;7.20;;;1.55;;
34230;SDS011;21574;51.538;-0.084;2022-10-16T06:14:42;2.85;;;1.63;;
34230;SDS011;21574;51.538;-0.084;2022-10-16T06:17:07;4.30;;;1.40;;
34230;SDS011;21574;51.538;-0.084;2022-10-16T06:19:33;5.32;;;1.50;;
34230;SDS011;21574;51.538;-0.084;2022-10-16T06:21:58;5.35;;;1.67;;
34230;SDS011;21574;51.538;-0.084;2022-10-16T06:24:25;7.80;;;1.40;;
34230;SDS011;21574;51.538;-0.084;2022-10-16T06:26:50;21.40;;;1.90;;
34230;SDS011;21574;51.538;-0.084;2022-10-16T06:29:16;22.70;;;2.05;;
34230;SDS011;21574;51.538;-0.084;2022-10-16T06:31:42;7.50;;;1.80;;
34230;SDS011;21574;51.538;-0.084;2022-10-16T06:34:09;4.97;;;1.85;;
34230;SDS011;21574;51.538;-0.084;2022-10-16T06:36:35;10.32;;;1.50;;
34230;SDS011;21574;51.538;-0.084;2022-10-16T06:39:02;10.30;;;1.90;;
34230;SDS011;21574;51.538;-0.084;2022-10-16T06:41:28;5.85;;;1.65;;
34230;SDS011;21574;51.538;-0.084;2022-10-16T06:43:53;9.02;;;1.80;;
34230;SDS011;21574;51.538;-0.084;2022-10-16T06:46:20;9.98;;;2.03;;
34230;SDS011;21574;51.538;-0.084;2022-10-16T06:48:47;7.07;;;1.55;;
34230;SDS011;21574;51.538;-0.084;2022-10-16T06:51:14;5.57;;;1.48;;
34230;SDS011;21574;51.538;-0.084;2022-10-16T06:53:51;6.22;;;2.00;;
34230;SDS011;21574;51.538;-0.084;2022-10-16T06:56:22;3.35;;;1.50;;
34230;SDS011;21574;51.538;-0.084;2022-10-16T06:58:49;4.18;;;1.50;;
34230;SDS011;21574;51.538;-0.084;2022-10-16T07:01:16;8.75;;;1.60;;
34230;SDS011;21574;51.538;-0.084;2022-10-16T07:03:44;4.50;;;1.30;;
34230;SDS011;21574;51.538;-0.084;2022-10-16T07:06:11;6.90;;;1.70;;
34230;SDS011;21574;51.538;-0.084;2022-10-16T07:08:42;3.75;;;1.33;;
34230;SDS011;21574;51.538;-0.084;2022-10-16T07:13:36;4.57;;;1.38;;
34230;SDS011;21574;51.538;-0.084;2022-10-16T07:16:05;5.03;;;1.42;;
34230;SDS011;21574;51.538;-0.084;2022-10-16T07:18:32;6.70;;;1.70;;
34230;SDS011;21574;51.538;-0.084;2022-10-16T07:21:08;6.53;;;1.52;;
34230;SDS011;21574;51.538;-0.084;2022-10-16T07:23:36;4.60;;;1.40;;
34230;SDS011;21574;51.538;-0.084;2022-10-16T07:26:02;3.65;;;1.35;;
34230;SDS011;21574;51.538;-0.084;2022-10-16T07:28:28;3.83;;;1.42;;
34230;SDS011;21574;51.538;-0.084;2022-10-16T07:30:54;3.40;;;1.33;;
34230;SDS011;21574;51.538;-0.084;2022-10-16T07:33:19;5.50;;;1.58;;
34230;SDS011;21574;51.538;-0.084;2022-10-16T07:35:49;5.75;;;1.33;;
34230;SDS011;21574;51.538;-0.084;2022-10-16T07:38:16;12.30;;;1.80;;
34230;SDS011;21574;51.538;-0.084;2022-10-16T07:40:41;7.88;;;1.48;;
34230;SDS011;21574;51.538;-0.084;2022-10-16T07:43:07;3.60;;;1.40;;
34230;SDS011;21574;51.538;-0.084;2022-10-16T07:45:33;3.67;;;1.52;;
34230;SDS011;21574;51.538;-0.084;2022-10-16T07:47:58;4.95;;;1.40;;
34230;SDS011;21574;51.538;-0.084;2022-10-16T07:50:24;5.25;;;1.63;;
34230;SDS011;21574;51.538;-0.084;2022-10-16T07:52:49;7.72;;;1.23;;
34230;SDS011;21574;51.538;-0.084;2022-10-16T07:55:15;3.88;;;1.20;;
34230;SDS011;21574;51.538;-0.084;2022-10-16T07:57:40;3.03;;;1.17;;
34230;SDS011;21574;51.538;-0.084;2022-10-16T08:00:06;4.88;;;1.40;;
34230;SDS011;21574;51.538;-0.084;2022-10-16T08:02:33;5.00;;;1.60;;
34230;SDS011;21574;51.538;-0.084;2022-10-16T08:04:58;6.05;;;1.38;;
34230;SDS011;21574;51.538;-0.084;2022-10-16T08:07:24;9.07;;;1.33;;
34230;SDS011;21574;51.538;-0.084;2022-10-16T08:09:49;5.35;;;1.23;;
34230;SDS011;21574;51.538;-0.084;2022-10-16T08:12:16;8.30;;;1.77;;
34230;SDS011;21574;51.538;-0.084;2022-10-16T08:14:42;4.97;;;1.20;;
34230;SDS011;21574;51.538;-0.084;2022-10-16T08:17:07;5.25;;;1.20;;
34230;SDS011;21574;51.538;-0.084;2022-10-16T08:19:33;6.10;;;1.15;;
34230;SDS011;21574;51.538;-0.084;2022-10-16T08:21:59;2.88;;;1.33;;
34230;SDS011;21574;51.538;-0.084;2022-10-16T08:24:26;3.75;;;1.23;;
34230;SDS011;21574;51.538;-0.084;2022-10-16T08:26:53;4.32;;;1.33;;
34230;SDS011;21574;51.538;-0.084;2022-10-16T08:29:19;7.32;;;1.40;;
34230;SDS011;21574;51.538;-0.084;2022-10-16T08:31:45;9.60;;;1.42;;
34230;SDS011;21574;51.538;-0.084;2022-10-16T08:34:10;5.20;;;1.67;;
34230;SDS011;21574;51.538;-0.084;2022-10-16T08:36:36;5.03;;;1.40;;
34230;SDS011;21574;51.538;-0.084;2022-10-16T08:39:01;6.88;;;1.58;;
34230;SDS011;21574;51.538;-0.084;2022-10-16T08:41:32;6.43;;;1.40;;
34230;SDS011;21574;51.538;-0.084;2022-10-16T08:46:46;4.88;;;1.20;;
34230;SDS011;21574;51.538;-0.084;2022-10-16T08:49:21;5.32;;;1.35;;
34230;SDS011;21574;51.538;-0.084;2022-10-16T08:51:49;6.50;;;1.40;;
34230;SDS011;21574;51.538;-0.084;2022-10-16T08:56:44;3.53;;;1.48;;
34230;SDS011;21574;51.538;-0.084;2022-10-16T08:59:10;4.57;;;1.40;;
34230;SDS011;21574;51.538;-0.084;2022-10-16T09:01:46;4.90;;;1.40;;
34230;SDS011;21574;51.538;-0.084;2022-10-16T09:09:57;3.50;;;1.27;;
34230;SDS011;21574;51.538;-0.084;2022-10-16T09:12:37;3.45;;;1.42;;
34230;SDS011;21574;51.538;-0.084;2022-10-16T09:15:26;4.15;;;1.45;;
34230;SDS011;21574;51.538;-0.084;2022-10-16T09:20:59;5.82;;;1.52;;
34230;SDS011;21574;51.538;-0.084;2022-10-16T09:23:40;3.95;;;1.17;;
34230;SDS011;21574;51.538;-0.084;2022-10-16T09:26:09;5.35;;;1.73;;
34230;SDS011;21574;51.538;-0.084;2022-10-16T09:28:37;4.63;;;1.55;;
34230;SDS011;21574;51.538;-0.084;2022-10-16T09:31:03;3.08;;;1.30;;
34230;SDS011;21574;51.538;-0.084;2022-10-16T09:33:29;3.67;;;1.20;;
34230;SDS011;21574;51.538;-0.084;2022-10-16T09:36:00;4.72;;;1.38;;
34230;SDS011;21574;51.538;-0.084;2022-10-16T09:38:32;3.60;;;1.40;;
34230;SDS011;21574;51.538;-0.084;2022-10-16T09:41:01;3.90;;;1.33;;
34230;SDS011;21574;51.538;-0.084;2022-10-16T09:46:27;2.45;;;1.05;;
34230;SDS011;21574;51.538;-0.084;2022-10-16T09:48:57;5.20;;;1.35;;
34230;SDS011;21574;51.538;-0.084;2022-10-16T09:54:00;3.35;;;1.30;;
34230;SDS011;21574;51.538;-0.084;2022-10-16T09:56:36;3.22;;;1.23;;
34230;SDS011;21574;51.538;-0.084;2022-10-16T09:59:16;3.20;;;1.30;;
34230;SDS011;21574;51.538;-0.084;2022-10-16T10:01:48;2.22;;;1.23;;
34230;SDS011;21574;51.538;-0.084;2022-10-16T10:04:16;5.75;;;1.52;;
34230;SDS011;21574;51.538;-0.084;2022-10-16T10:06:44;3.20;;;1.20;;
34230;SDS011;21574;51.538;-0.084;2022-10-16T10:09:16;3.08;;;1.00;;
34230;SDS011;21574;51.538;-0.084;2022-10-16T10:11:50;5.03;;;1.40;;
34230;SDS011;21574;51.538;-0.084;2022-10-16T10:16:45;3.67;;;1.10;;
34230;SDS011;21574;51.538;-0.084;2022-10-16T10:19:22;6.05;;;1.13;;
34230;SDS011;21574;51.538;-0.084;2022-10-16T10:21:49;6.13;;;1.23;;
34230;SDS011;21574;51.538;-0.084;2022-10-16T10:24:17;6.78;;;1.63;;
34230;SDS011;21574;51.538;-0.084;2022-10-16T10:26:52;13.20;;;2.53;;
34230;SDS011;21574;51.538;-0.084;2022-10-16T10:35:39;22.90;;;3.15;;
34230;SDS011;21574;51.538;-0.084;2022-10-16T10:38:23;31.45;;;4.25;;
34230;SDS011;21574;51.538;-0.084;2022-10-16T10:40:52;22.63;;;3.92;;
34230;SDS011;21574;51.538;-0.084;2022-10-16T10:43:48;27.70;;;3.95;;
34230;SDS011;21574;51.538;-0.084;2022-10-16T10:46:23;22.80;;;4.22;;
34230;SDS011;21574;51.538;-0.084;2022-10-16T10:49:07;22.52;;;3.67;;
34230;SDS011;21574;51.538;-0.084;2022-10-16T10:51:43;19.20;;;3.72;;
34230;SDS011;21574;51.538;-0.084;2022-10-16T10:56:56;18.95;;;3.60;;
34230;SDS011;21574;51.538;-0.084;2022-10-16T10:59:28;19.73;;;3.88;;
34230;SDS011;21574;51.538;-0.084;2022-10-16T11:02:14;17.40;;;3.60;;
34230;SDS011;21574;51.538;-0.084;2022-10-16T11:07:39;16.63;;;4.20;;
34230;SDS011;21574;51.538;-0.084;2022-10-16T11:10:13;18.95;;;3.42;;
34230;SDS011;21574;51.538;-0.084;2022-10-16T11:20:27;16.27;;;3.35;;
34230;SDS011;21574;51.538;-0.084;2022-10-16T11:23:00;17.20;;;3.33;;
34230;SDS011;21574;51.538;-0.084;2022-10-16T11:25:32;17.25;;;3.83;;
34230;SDS011;21574;51.538;-0.084;2022-10-16T11:30:31;16.95;;;3.40;;
34230;SDS011;21574;51.538;-0.084;2022-10-16T11:35:44;14.98;;;2.83;;
34230;SDS011;21574;51.538;-0.084;2022-10-16T11:38:37;25.95;;;3.70;;
34230;SDS011;21574;51.538;-0.084;2022-10-16T11:41:27;12.18;;;3.17;;
34230;SDS011;21574;51.538;-0.084;2022-10-16T11:44:42;10.32;;;2.33;;
34230;SDS011;21574;51.538;-0.084;2022-10-16T11:46:51;10.57;;;2.85;;
34230;SDS011;21574;51.538;-0.084;2022-10-16T11:49:26;9.65;;;2.85;;
34230;SDS011;21574;51.538;-0.084;2022-10-16T11:54:36;12.02;;;3.28;;
34230;SDS011;21574;51.538;-0.084;2022-10-16T11:57:23;15.55;;;3.33;;
34230;SDS011;21574;51.538;-0.084;2022-10-16T12:05:55;11.82;;;2.67;;
34230;SDS011;21574;51.538;-0.084;2022-10-16T12:08:53;9.50;;;2.30;;
34230;SDS011;21574;51.538;-0.084;2022-10-16T12:13:50;16.88;;;2.50;;
34230;SDS011;21574;51.538;-0.084;2022-10-16T12:18:45;8.98;;;2.63;;
34230;SDS011;21574;51.538;-0.084;2022-10-16T12:21:12;9.65;;;2.45;;
34230;SDS011;21574;51.538;-0.084;2022-10-16T12:23:50;16.55;;;2.78;;
34230;SDS011;21574;51.538;-0.084;2022-10-16T12:26:34;11.80;;;2.78;;
34230;SDS011;21574;51.538;-0.084;2022-10-16T12:29:14;9.85;;;2.33;;
34230;SDS011;21574;51.538;-0.084;2022-10-16T12:31:52;11.18;;;2.65;;
34230;SDS011;21574;51.538;-0.084;2022-10-16T12:34:28;8.23;;;2.20;;
34230;SDS011;21574;51.538;-0.084;2022-10-16T12:40:11;12.20;;;2.40;;
34230;SDS011;21574;51.538;-0.084;2022-10-16T12:42:39;10.07;;;2.38;;
34230;SDS011;21574;51.538;-0.084;2022-10-16T12:47:50;4.97;;;1.90;;
34230;SDS011;21574;51.538;-0.084;2022-10-16T12:52:56;5.43;;;1.92;;
34230;SDS011;21574;51.538;-0.084;2022-10-16T12:55:22;7.88;;;2.00;;
34230;SDS011;21574;51.538;-0.084;2022-10-16T12:58:00;5.40;;;2.00;;
34230;SDS011;21574;51.538;-0.084;2022-10-16T13:00:32;7.18;;;2.00;;
34230;SDS011;21574;51.538;-0.084;2022-10-16T13:22:27;5.88;;;1.88;;
34230;SDS011;21574;51.538;-0.084;2022-10-16T13:25:08;6.65;;;1.92;;
34230;SDS011;21574;51.538;-0.084;2022-10-16T13:27:54;4.82;;;1.60;;
34230;SDS011;21574;51.538;-0.084;2022-10-16T13:30:24;6.43;;;2.03;;
34230;SDS011;21574;51.538;-0.084;2022-10-16T13:32:58;4.82;;;2.05;;
34230;SDS011;21574;51.538;-0.084;2022-10-16T13:35:30;5.40;;;1.83;;
34230;SDS011;21574;51.538;-0.084;2022-10-16T13:38:13;3.42;;;1.60;;
34230;SDS011;21574;51.538;-0.084;2022-10-16T13:40:57;5.95;;;1.98;;
34230;SDS011;21574;51.538;-0.084;2022-10-16T13:44:09;5.10;;;2.10;;
34230;SDS011;21574;51.538;-0.084;2022-10-16T13:46:20;5.20;;;1.73;;
34230;SDS011;21574;51.538;-0.084;2022-10-16T13:48:57;6.70;;;1.85;;
34230;SDS011;21574;51.538;-0.084;2022-10-16T13:51:27;4.35;;;1.58;;
34230;SDS011;21574;51.538;-0.084;2022-10-16T13:53:57;6.78;;;1.73;;
34230;SDS011;21574;51.538;-0.084;2022-10-16T13:56:27;6.47;;;1.80;;
34230;SDS011;21574;51.538;-0.084;2022-10-16T14:01:30;4.55;;;1.60;;
34230;SDS011;21574;51.538;-0.084;2022-10-16T14:04:06;4.28;;;1.60;;
34230;SDS011;21574;51.538;-0.084;2022-10-16T14:06:34;3.17;;;1.42;;
34230;SDS011;21574;51.538;-0.084;2022-10-16T14:09:05;6.00;;;1.85;;
34230;SDS011;21574;51.538;-0.084;2022-10-16T14:11:33;3.35;;;1.30;;
34230;SDS011;21574;51.538;-0.084;2022-10-16T14:14:02;4.45;;;1.40;;
34230;SDS011;21574;51.538;-0.084;2022-10-16T14:16:29;5.07;;;1.80;;
34230;SDS011;21574;51.538;-0.084;2022-10-16T14:18:57;6.25;;;1.60;;
34230;SDS011;21574;51.538;-0.084;2022-10-16T14:21:25;4.30;;;1.67;;
34230;SDS011;21574;51.538;-0.084;2022-10-16T14:23:51;6.28;;;2.00;;
34230;SDS011;21574;51.538;-0.084;2022-10-16T14:26:19;4.90;;;1.85;;
34230;SDS011;21574;51.538;-0.084;2022-10-16T14:28:47;8.48;;;1.60;;
34230;SDS011;21574;51.538;-0.084;2022-10-16T14:33:44;4.35;;;1.70;;
34230;SDS011;21574;51.538;-0.084;2022-10-16T14:36:11;7.18;;;1.85;;
34230;SDS011;21574;51.538;-0.084;2022-10-16T14:38:40;4.47;;;1.45;;
34230;SDS011;21574;51.538;-0.084;2022-10-16T14:41:07;8.20;;;1.77;;
34230;SDS011;21574;51.538;-0.084;2022-10-16T14:43:37;6.32;;;1.80;;
34230;SDS011;21574;51.538;-0.084;2022-10-16T14:46:06;4.95;;;1.80;;
34230;SDS011;21574;51.538;-0.084;2022-10-16T14:48:42;5.93;;;1.83;;
34230;SDS011;21574;51.538;-0.084;2022-10-16T14:51:14;8.23;;;1.67;;
34230;SDS011;21574;51.538;-0.084;2022-10-16T14:53:41;4.47;;;1.58;;
34230;SDS011;21574;51.538;-0.084;2022-10-16T14:56:17;3.83;;;1.48;;
34230;SDS011;21574;51.538;-0.084;2022-10-16T14:58:48;6.50;;;1.73;;
34230;SDS011;21574;51.538;-0.084;2022-10-16T15:01:15;6.10;;;1.60;;
34230;SDS011;21574;51.538;-0.084;2022-10-16T15:03:41;7.20;;;1.65;;
34230;SDS011;21574;51.538;-0.084;2022-10-16T15:06:11;4.53;;;1.70;;
34230;SDS011;21574;51.538;-0.084;2022-10-16T15:08:37;6.07;;;1.80;;
34230;SDS011;21574;51.538;-0.084;2022-10-16T15:11:04;5.10;;;1.65;;
34230;SDS011;21574;51.538;-0.084;2022-10-16T15:13:29;5.55;;;1.50;;
34230;SDS011;21574;51.538;-0.084;2022-10-16T15:15:55;6.30;;;1.40;;
34230;SDS011;21574;51.538;-0.084;2022-10-16T15:18:21;3.33;;;1.23;;
34230;SDS011;21574;51.538;-0.084;2022-10-16T15:20:48;3.45;;;1.60;;
34230;SDS011;21574;51.538;-0.084;2022-10-16T15:23:16;3.97;;;1.35;;
34230;SDS011;21574;51.538;-0.084;2022-10-16T15:25:44;3.08;;;1.30;;
34230;SDS011;21574;51.538;-0.084;2022-10-16T15:28:12;5.10;;;1.58;;
34230;SDS011;21574;51.538;-0.084;2022-10-16T15:30:39;4.50;;;1.70;;
34230;SDS011;21574;51.538;-0.084;2022-10-16T15:33:08;5.65;;;1.33;;
34230;SDS011;21574;51.538;-0.084;2022-10-16T15:35:37;4.05;;;1.42;;
34230;SDS011;21574;51.538;-0.084;2022-10-16T15:38:03;4.28;;;1.30;;
34230;SDS011;21574;51.538;-0.084;2022-10-16T15:40:28;7.00;;;1.63;;
34230;SDS011;21574;51.538;-0.084;2022-10-16T15:42:54;4.85;;;1.90;;
34230;SDS011;21574;51.538;-0.084;2022-10-16T15:45:20;13.70;;;7.05;;
34230;SDS011;21574;51.538;-0.084;2022-10-16T15:47:46;7.93;;;2.70;;
34230;SDS011;21574;51.538;-0.084;2022-10-16T15:50:12;8.77;;;3.10;;
34230;SDS011;21574;51.538;-0.084;2022-10-16T15:52:39;9.88;;;2.97;;
34230;SDS011;21574;51.538;-0.084;2022-10-16T15:55:07;5.20;;;2.17;;
34230;SDS011;21574;51.538;-0.084;2022-10-16T15:57:36;7.05;;;2.00;;
34230;SDS011;21574;51.538;-0.084;2022-10-16T16:02:40;5.43;;;2.17;;
34230;SDS011;21574;51.538;-0.084;2022-10-16T16:07:35;5.05;;;2.50;;
34230;SDS011;21574;51.538;-0.084;2022-10-16T16:10:02;8.85;;;3.25;;
34230;SDS011;21574;51.538;-0.084;2022-10-16T16:12:29;7.18;;;2.90;;
34230;SDS011;21574;51.538;-0.084;2022-10-16T16:14:55;8.32;;;3.83;;
34230;SDS011;21574;51.538;-0.084;2022-10-16T16:17:21;5.93;;;3.17;;
34230;SDS011;21574;51.538;-0.084;2022-10-16T16:19:46;8.85;;;3.60;;
34230;SDS011;21574;51.538;-0.084;2022-10-16T16:22:12;7.65;;;3.60;;
34230;SDS011;21574;51.538;-0.084;2022-10-16T16:24:38;6.50;;;3.22;;
34230;SDS011;21574;51.538;-0.084;2022-10-16T16:27:04;9.55;;;3.45;;
34230;SDS011;21574;51.538;-0.084;2022-10-16T16:29:29;11.57;;;3.33;;
34230;SDS011;21574;51.538;-0.084;2022-10-16T16:31:55;7.63;;;3.50;;
34230;SDS011;21574;51.538;-0.084;2022-10-16T16:34:25;8.55;;;3.88;;
34230;SDS011;21574;51.538;-0.084;2022-10-16T16:36:54;9.55;;;3.47;;
34230;SDS011;21574;51.538;-0.084;2022-10-16T16:39:21;9.43;;;3.53;;
34230;SDS011;21574;51.538;-0.084;2022-10-16T16:41:46;7.90;;;3.42;;
34230;SDS011;21574;51.538;-0.084;2022-10-16T16:44:13;11.02;;;4.18;;
34230;SDS011;21574;51.538;-0.084;2022-10-16T16:46:39;8.48;;;3.35;;
34230;SDS011;21574;51.538;-0.084;2022-10-16T16:49:08;8.02;;;3.53;;
34230;SDS011;21574;51.538;-0.084;2022-10-16T16:51:36;7.82;;;3.30;;